Terminal Aerodrome Forecast
Issued by NWS

Home | Current Version | Previous Version | Text Only | Print | Product List | Glossary Off
Versions: 1 2 3 4 5 6 7 8 9 10 11 12 13 14 15 16 17 18 19 20

000
FTUS43 KBIS 281700
TAFMOT
TAF
KMOT 281720Z 2818/2918 31015G23KT P6SM OVC015
     FM290000 32009KT P6SM OVC020
     FM290300 31004KT 2SM BR OVC010
     FM291000 17004KT 2SM BR BKN060
     FM291300 17006KT P6SM SCT110
     FM291400 17007KT P6SM BKN100=

USA.gov is the U.S. government's official web portal to all federal, state and local government web resources and services.